West Bradenton, Florida
Current Conditions -  °F | °C
As of 11:53 AM on Friday 21 Nov 2014 (Local Time) from KSRQ Reporting Station
Broken Clouds Broken Clouds  
Wind Chill: 71°   Ceiling: 9500
Heat Index: 71°   Visibility: 10mi
Dew Point: 53°   Wind: 17mph
Humidity: 53%   Direction: 70°ENE
Pressure: 30.21"   Gusts: 26mph
Location:  27.4818°N, 82.584°W
Report Text: KSRQ 211653Z 07015G23KT 10SM BKN095 22/12 A3021 RMK AO2 SLP228 T02170117
Loading
Personal Weather Stations






























Interactive Weather Map New forecast layout! Learn more

10-Day Weather Forecast

Advertisements
Track Severe Weather on mobile